Time;durP1;ratioP1;P1;durP2;ratioP2;P2;SDS_P1;SDS_P2;PMS_P1;PMS_P2;Temp;Humidity;BMP_temperature;BMP_pressure;BME280_temperature;BME280_humidity;BME280_pressure;Samples;Min_cycle;Max_cycle;Signal;HPM_P1;HPM_P2
2023/07/08 00:02:45;;;;;;;5.13;3.63;;;25.70;50.50;;;;;;7641595;22;80305;-58
2023/07/08 00:05:45;;;;;;;8.40;4.15;;;25.70;50.50;;;;;;7641562;22;81287;-58
2023/07/08 00:08:46;;;;;;;5.38;3.90;;;25.70;50.70;;;;;;7642007;22;80530;-66
2023/07/08 00:11:46;;;;;;;5.95;4.20;;;25.70;50.80;;;;;;7642257;22;80790;-66
2023/07/08 00:14:47;;;;;;;5.55;3.80;;;25.70;50.70;;;;;;7642984;22;80413;-65
2023/07/08 00:17:47;;;;;;;5.00;3.55;;;25.70;50.70;;;;;;7642511;22;80334;-64
2023/07/08 00:20:48;;;;;;;7.60;3.67;;;25.70;50.80;;;;;;7642598;22;80811;-65
2023/07/08 00:23:49;;;;;;;7.95;4.20;;;25.70;50.70;;;;;;7641542;22;80359;-66
2023/07/08 00:26:49;;;;;;;9.32;4.20;;;25.70;50.80;;;;;;7642957;22;81002;-62
2023/07/08 00:29:50;;;;;;;9.68;3.90;;;25.70;50.80;;;;;;7642259;22;80270;-61
2023/07/08 00:32:56;;;;;;;8.18;4.03;;;25.60;50.90;;;;;;7643249;22;80325;-61
2023/07/08 00:35:57;;;;;;;6.90;3.65;;;25.60;50.90;;;;;;7642453;22;81953;-62
2023/07/08 00:38:58;;;;;;;7.45;3.92;;;25.60;51.00;;;;;;7615184;22;80876;-62
2023/07/08 00:41:58;;;;;;;5.18;3.53;;;25.60;51.00;;;;;;7642015;22;80469;-62
2023/07/08 00:44:59;;;;;;;6.35;3.38;;;25.60;51.00;;;;;;7641973;22;80041;-61
2023/07/08 00:47:59;;;;;;;6.10;3.95;;;25.60;51.00;;;;;;7642188;22;80369;-62
2023/07/08 00:51:00;;;;;;;5.15;3.63;;;25.60;51.00;;;;;;7641678;22;80414;-61
2023/07/08 00:54:00;;;;;;;6.55;4.50;;;25.60;51.00;;;;;;7641988;22;80766;-61
2023/07/08 00:57:01;;;;;;;5.68;3.60;;;25.60;51.00;;;;;;7643436;22;81466;-62
2023/07/08 01:00:03;;;;;;;9.25;4.60;;;25.60;51.00;;;;;;7642544;22;80576;-62
2023/07/08 01:03:03;;;;;;;6.28;4.35;;;25.60;51.00;;;;;;7614724;22;80415;-62
2023/07/08 01:06:06;;;;;;;5.63;3.83;;;25.60;50.90;;;;;;7614980;22;83383;-62
2023/07/08 01:09:07;;;;;;;7.10;4.18;;;25.60;50.90;;;;;;7642310;22;80231;-61
2023/07/08 01:12:09;;;;;;;5.28;3.78;;;25.60;50.90;;;;;;7615624;22;82692;-60
2023/07/08 01:15:10;;;;;;;6.30;3.85;;;25.60;50.80;;;;;;7614649;22;83374;-61
2023/07/08 01:18:10;;;;;;;8.30;4.30;;;25.60;50.80;;;;;;7642248;22;80497;-60
2023/07/08 01:21:11;;;;;;;7.80;3.85;;;25.60;50.90;;;;;;7642014;22;81013;-60
2023/07/08 01:24:11;;;;;;;14.48;4.32;;;25.60;50.80;;;;;;7643442;22;81653;-60
2023/07/08 01:27:12;;;;;;;6.65;4.05;;;25.60;50.80;;;;;;7642236;22;80363;-61
2023/07/08 01:30:12;;;;;;;5.75;4.25;;;25.60;50.80;;;;;;7643039;22;80450;-60
2023/07/08 01:33:13;;;;;;;6.55;4.25;;;25.60;50.90;;;;;;7642804;22;80252;-61
2023/07/08 01:36:13;;;;;;;5.78;4.10;;;25.60;50.90;;;;;;7642783;22;81023;-60
2023/07/08 01:39:15;;;;;;;6.40;4.15;;;25.60;50.80;;;;;;7643775;22;80092;-60
2023/07/08 01:42:15;;;;;;;9.13;5.05;;;25.60;50.80;;;;;;7642906;22;81070;-59
2023/07/08 01:45:16;;;;;;;6.97;4.60;;;25.60;51.00;;;;;;7615127;22;81658;-58
2023/07/08 01:48:16;;;;;;;4.60;3.72;;;25.60;51.00;;;;;;7642897;22;80794;-58
2023/07/08 01:51:17;;;;;;;5.80;4.35;;;25.60;50.90;;;;;;7615762;22;82886;-58
2023/07/08 01:54:17;;;;;;;7.60;4.50;;;25.60;50.90;;;;;;7642428;22;80195;-58
2023/07/08 01:57:17;;;;;;;5.40;3.90;;;25.60;50.90;;;;;;7643186;22;81097;-57
2023/07/08 02:00:18;;;;;;;7.25;4.65;;;25.50;50.80;;;;;;7616241;22;83154;-59
2023/07/08 02:03:18;;;;;;;7.43;4.50;;;25.50;50.80;;;;;;7642682;22;80601;-58
2023/07/08 02:06:19;;;;;;;6.05;4.18;;;25.60;50.90;;;;;;7614922;22;81511;-58
2023/07/08 02:09:20;;;;;;;7.13;4.20;;;25.50;50.90;;;;;;7641888;22;80600;-58
2023/07/08 02:12:20;;;;;;;6.47;4.43;;;25.50;50.90;;;;;;7642642;22;80791;-57
2023/07/08 02:15:21;;;;;;;5.88;4.35;;;25.50;51.00;;;;;;7642909;22;80283;-57
2023/07/08 02:18:23;;;;;;;6.40;4.40;;;25.50;50.90;;;;;;7641906;22;80446;-58
2023/07/08 02:21:24;;;;;;;9.95;4.70;;;25.50;50.90;;;;;;7616747;22;83339;-57
2023/07/08 02:24:25;;;;;;;8.48;4.65;;;25.50;50.90;;;;;;7642072;22;81238;-57
2023/07/08 02:27:26;;;;;;;7.78;4.50;;;25.50;50.80;;;;;;7615580;22;81787;-58
2023/07/08 02:30:26;;;;;;;8.13;4.57;;;25.50;50.80;;;;;;7642185;22;80324;-58
2023/07/08 02:33:32;;;;;;;5.15;4.07;;;25.40;50.80;;;;;;7640178;22;81229;-57
2023/07/08 02:36:33;;;;;;;6.65;4.03;;;25.40;50.80;;;;;;7641578;22;81350;-58
2023/07/08 02:39:34;;;;;;;6.22;4.68;;;25.40;50.80;;;;;;7642648;22;80466;-58
2023/07/08 02:42:34;;;;;;;6.85;4.82;;;25.40;50.90;;;;;;7641980;22;80458;-59
2023/07/08 02:45:35;;;;;;;6.25;4.45;;;25.40;50.90;;;;;;7642932;22;80784;-60
2023/07/08 02:48:35;;;;;;;6.53;4.25;;;25.50;50.90;;;;;;7641390;22;80036;-59
2023/07/08 02:51:36;;;;;;;5.95;4.00;;;25.50;51.00;;;;;;7638512;22;80824;-59
2023/07/08 02:54:37;;;;;;;5.68;4.40;;;25.40;51.00;;;;;;7615542;22;82141;-61
2023/07/08 02:57:37;;;;;;;6.53;4.47;;;25.50;51.00;;;;;;7641108;22;80699;-61
2023/07/08 03:00:38;;;;;;;7.95;4.47;;;25.50;51.00;;;;;;7641211;22;81012;-62
2023/07/08 03:03:38;;;;;;;8.15;4.80;;;25.50;51.10;;;;;;7614489;22;83422;-60
2023/07/08 03:06:39;;;;;;;8.60;4.78;;;25.40;51.00;;;;;;7641326;22;80256;-61
2023/07/08 03:09:39;;;;;;;5.40;3.88;;;25.50;51.10;;;;;;7641281;22;80405;-63
2023/07/08 03:12:40;;;;;;;6.78;4.18;;;25.50;51.00;;;;;;7614838;22;81289;-60
2023/07/08 03:15:40;;;;;;;12.98;4.47;;;25.50;51.00;;;;;;7615165;22;83152;-61
2023/07/08 03:18:47;;;;;;;7.70;4.90;;;25.50;51.00;;;;;;7614383;22;82344;-61
2023/07/08 03:21:48;;;;;;;7.18;4.55;;;25.50;51.00;;;;;;7615027;22;82163;-61
2023/07/08 03:24:49;;;;;;;6.88;4.28;;;25.50;50.80;;;;;;7641576;22;80119;-61
2023/07/08 03:27:55;;;;;;;7.10;4.50;;;25.50;50.90;;;;;;7616507;22;82681;-61
2023/07/08 03:30:56;;;;;;;7.75;4.35;;;25.50;50.90;;;;;;7615330;22;81227;-61
2023/07/08 03:33:57;;;;;;;7.15;4.45;;;25.50;51.00;;;;;;7615888;22;83294;-61
2023/07/08 03:36:57;;;;;;;4.88;4.00;;;25.50;51.10;;;;;;7641677;22;80226;-61
2023/07/08 03:39:58;;;;;;;8.40;4.07;;;25.50;51.20;;;;;;7616299;22;83236;-60
2023/07/08 03:42:59;;;;;;;6.75;4.32;;;25.50;51.90;;;;;;7643619;22;80231;-61
2023/07/08 03:46:02;;;;;;;8.27;4.32;;;25.50;51.30;;;;;;7615818;22;80450;-61
2023/07/08 03:49:03;;;;;;;7.15;4.50;;;25.50;51.20;;;;;;7642784;22;80715;-62
2023/07/08 03:52:03;;;;;;;6.25;4.20;;;25.50;51.30;;;;;;7616297;22;83519;-62
2023/07/08 03:55:04;;;;;;;6.72;4.20;;;25.40;52.00;;;;;;7642806;22;80372;-61
2023/07/08 03:58:04;;;;;;;5.97;4.57;;;25.40;51.40;;;;;;7615434;22;82921;-63
2023/07/08 04:01:07;;;;;;;8.48;4.47;;;25.40;51.40;;;;;;7616283;22;83464;-62
2023/07/08 04:04:08;;;;;;;5.63;3.90;;;25.50;51.40;;;;;;7642001;22;80063;-61
2023/07/08 04:07:09;;;;;;;8.10;4.43;;;25.50;51.50;;;;;;7614971;22;83135;-60
2023/07/08 04:10:10;;;;;;;7.97;4.65;;;25.50;51.60;;;;;;7641777;22;80421;-67
2023/07/08 04:13:10;;;;;;;5.63;4.20;;;25.40;51.50;;;;;;7641555;22;80256;-68
2023/07/08 04:16:11;;;;;;;7.88;5.18;;;25.40;51.50;;;;;;7643058;22;80910;-66
2023/07/08 04:19:14;;;;;;;8.38;4.60;;;25.50;51.50;;;;;;7643052;22;80911;-66
2023/07/08 04:22:14;;;;;;;10.00;4.90;;;25.50;51.50;;;;;;7642441;22;80768;-67
2023/07/08 04:25:15;;;;;;;7.90;5.00;;;25.50;51.50;;;;;;7640429;22;80255;-67
2023/07/08 04:28:16;;;;;;;7.20;4.57;;;25.40;51.50;;;;;;7642722;22;80730;-69
2023/07/08 04:31:16;;;;;;;8.20;4.28;;;25.50;51.50;;;;;;7643227;22;81203;-70
2023/07/08 04:34:17;;;;;;;8.55;4.30;;;25.50;51.40;;;;;;7644076;22;80656;-67
2023/07/08 04:37:19;;;;;;;8.73;4.20;;;25.40;51.50;;;;;;7643457;22;80287;-68
2023/07/08 04:40:19;;;;;;;7.13;4.35;;;25.50;51.50;;;;;;7643029;22;80737;-68
2023/07/08 04:43:20;;;;;;;6.45;4.38;;;25.50;51.50;;;;;;7642547;22;80661;-68
2023/07/08 04:46:20;;;;;;;6.50;4.20;;;25.50;51.40;;;;;;7641739;22;81021;-69
2023/07/08 04:49:21;;;;;;;6.65;4.57;;;25.50;51.50;;;;;;7641899;22;84414;-68
2023/07/08 04:52:21;;;;;;;9.45;5.18;;;25.40;51.60;;;;;;7644623;22;80245;-73
2023/07/08 04:55:22;;;;;;;6.75;4.82;;;25.50;51.60;;;;;;7644151;22;80174;-69
2023/07/08 04:58:22;;;;;;;8.85;4.60;;;25.50;51.50;;;;;;7643677;22;80891;-67
2023/07/08 05:01:23;;;;;;;5.38;4.15;;;25.50;51.60;;;;;;7642474;22;80478;-67
2023/07/08 05:04:23;;;;;;;6.05;4.10;;;25.50;51.60;;;;;;7641750;22;80222;-56
2023/07/08 05:07:24;;;;;;;8.38;4.60;;;25.50;51.50;;;;;;7640783;22;80030;-55
2023/07/08 05:10:24;;;;;;;6.45;4.07;;;25.50;51.90;;;;;;7642714;22;81038;-55
2023/07/08 05:13:25;;;;;;;5.72;3.90;;;25.50;51.70;;;;;;7642287;22;80847;-51
2023/07/08 05:16:25;;;;;;;7.22;4.22;;;25.60;51.90;;;;;;7642586;22;80762;-53
2023/07/08 05:19:26;;;;;;;5.82;3.88;;;25.50;51.70;;;;;;7641253;22;80181;-57
2023/07/08 05:22:27;;;;;;;9.43;4.07;;;25.50;51.80;;;;;;7614735;22;81772;-57
2023/07/08 05:25:27;;;;;;;5.13;4.45;;;25.60;51.80;;;;;;7641116;22;81373;-59
2023/07/08 05:28:28;;;;;;;6.03;3.97;;;25.60;51.90;;;;;;7641905;22;81128;-60
2023/07/08 05:31:28;;;;;;;6.95;4.00;;;25.60;51.90;;;;;;7641042;22;80313;-59
2023/07/08 05:34:29;;;;;;;6.90;3.78;;;25.60;52.00;;;;;;7643638;22;80561;-59
2023/07/08 05:37:29;;;;;;;12.75;4.13;;;25.60;51.90;;;;;;7642233;22;80775;-59
2023/07/08 05:40:30;;;;;;;7.28;3.80;;;25.60;51.80;;;;;;7642972;22;80323;-51
2023/07/08 05:43:30;;;;;;;5.93;3.78;;;25.60;51.30;;;;;;7638843;22;80507;-50
2023/07/08 05:46:31;;;;;;;6.07;3.80;;;25.60;51.10;;;;;;7637039;22;81397;-55
2023/07/08 05:49:31;;;;;;;9.98;4.55;;;25.60;51.10;;;;;;7614891;22;83145;-57
2023/07/08 05:52:32;;;;;;;12.90;5.32;;;25.60;51.00;;;;;;7611823;22;82077;-55
2023/07/08 05:55:32;;;;;;;8.25;4.35;;;25.60;51.00;;;;;;7630094;22;80436;-58
2023/07/08 05:58:33;;;;;;;7.80;5.45;;;25.60;51.20;;;;;;7637816;22;81016;-54
2023/07/08 06:01:33;;;;;;;11.85;5.95;;;25.70;51.20;;;;;;7641407;22;80802;-56
2023/07/08 06:04:34;;;;;;;13.07;6.13;;;25.70;51.20;;;;;;7641598;22;80882;-54
2023/07/08 06:07:34;;;;;;;10.63;5.60;;;25.70;51.20;;;;;;7641043;22;80725;-54
2023/07/08 06:10:35;;;;;;;8.48;5.05;;;25.70;51.30;;;;;;7641581;22;81486;-55
2023/07/08 06:13:35;;;;;;;9.40;5.00;;;25.70;51.30;;;;;;7642721;22;80145;-55
2023/07/08 06:16:36;;;;;;;9.70;5.32;;;25.80;51.40;;;;;;7641455;22;80807;-68
2023/07/08 06:19:37;;;;;;;8.63;4.72;;;25.80;51.30;;;;;;7617146;22;81594;-66
2023/07/08 06:22:37;;;;;;;10.98;5.72;;;25.80;51.50;;;;;;7643185;22;80742;-70
2023/07/08 06:25:38;;;;;;;7.57;4.88;;;25.80;51.60;;;;;;7642256;22;80302;-66
2023/07/08 06:28:38;;;;;;;7.85;4.13;;;25.80;51.60;;;;;;7641807;22;81245;-65
2023/07/08 06:31:39;;;;;;;6.97;4.30;;;25.80;51.50;;;;;;7643001;22;80182;-66
2023/07/08 06:34:39;;;;;;;10.65;4.25;;;25.80;51.60;;;;;;7612085;22;83742;-67
2023/07/08 06:37:40;;;;;;;8.57;4.95;;;25.80;51.70;;;;;;7637890;22;80207;-66
2023/07/08 06:40:40;;;;;;;6.28;4.72;;;25.80;52.00;;;;;;7640450;22;80383;-69
2023/07/08 06:43:41;;;;;;;11.93;5.57;;;25.80;52.00;;;;;;7638930;22;80547;-67
2023/07/08 06:46:51;;;;;;;6.53;4.45;;;25.80;52.30;;;;;;7639627;22;80443;-68
2023/07/08 06:49:51;;;;;;;7.65;5.10;;;25.90;52.00;;;;;;7641545;22;80255;-67
2023/07/08 06:52:52;;;;;;;9.70;4.10;;;25.90;52.00;;;;;;7641180;22;80874;-64
2023/07/08 06:55:52;;;;;;;7.78;4.13;;;25.80;51.90;;;;;;7641154;22;80365;-64
2023/07/08 06:58:53;;;;;;;6.78;4.38;;;25.80;52.00;;;;;;7638860;22;80438;-67
2023/07/08 07:01:53;;;;;;;7.82;4.05;;;25.90;52.10;;;;;;7640740;22;80865;-66
2023/07/08 07:04:55;;;;;;;9.23;4.70;;;25.90;51.70;;;;;;7637313;22;81225;-67
2023/07/08 07:07:56;;;;;;;4.68;3.65;;;25.90;51.70;;;;;;7639086;22;80963;-64
2023/07/08 07:10:56;;;;;;;7.65;3.63;;;25.80;51.60;;;;;;7637063;22;80353;-65
2023/07/08 07:13:57;;;;;;;13.25;4.57;;;25.90;51.60;;;;;;7641713;22;80312;-53
2023/07/08 07:16:57;;;;;;;9.63;4.30;;;25.90;51.50;;;;;;7640915;22;81479;-50
2023/07/08 07:19:58;;;;;;;5.47;3.60;;;25.90;51.60;;;;;;7642396;22;80358;-54
2023/07/08 07:22:58;;;;;;;5.47;3.45;;;25.90;51.60;;;;;;7641160;22;80399;-57
2023/07/08 07:25:59;;;;;;;5.60;3.50;;;25.90;50.70;;;;;;7643209;22;80293;-55
2023/07/08 07:29:00;;;;;;;7.68;3.25;;;25.90;50.50;;;;;;7642568;22;80682;-58
2023/07/08 07:32:00;;;;;;;9.27;3.13;;;25.90;50.40;;;;;;7639672;22;80953;-58
2023/07/08 07:35:01;;;;;;;4.70;3.00;;;25.90;50.50;;;;;;7639957;22;80323;-59
2023/07/08 07:38:01;;;;;;;5.03;3.08;;;25.70;50.30;;;;;;7641125;22;85416;-58
2023/07/08 07:41:05;;;;;;;6.18;3.95;;;25.70;50.80;;;;;;7642380;22;80217;-60
2023/07/08 07:44:06;;;;;;;7.22;3.38;;;25.80;50.80;;;;;;7642647;22;80756;-57
2023/07/08 07:47:07;;;;;;;6.45;3.25;;;25.90;51.10;;;;;;7635003;22;80084;-56
2023/07/08 07:50:07;;;;;;;4.60;3.00;;;25.90;51.00;;;;;;7639563;22;80595;-58
2023/07/08 07:53:08;;;;;;;11.85;3.13;;;26.00;50.90;;;;;;7641412;22;80218;-58
2023/07/08 07:56:08;;;;;;;5.50;3.58;;;26.00;51.00;;;;;;7620118;22;81167;-57
2023/07/08 07:59:09;;;;;;;5.30;3.10;;;25.90;49.70;;;;;;7637846;22;80693;-58
2023/07/08 08:02:11;;;;;;;7.03;2.80;;;26.00;50.10;;;;;;7639885;22;80889;-58
2023/07/08 08:05:12;;;;;;;5.25;3.03;;;25.90;49.30;;;;;;7631588;22;80326;-60
2023/07/08 08:08:12;;;;;;;4.80;2.60;;;26.00;48.50;;;;;;7627592;22;80908;-59
2023/07/08 08:11:13;;;;;;;5.25;2.65;;;26.00;47.10;;;;;;7603113;22;81620;-65
2023/07/08 08:14:13;;;;;;;6.10;2.70;;;26.00;47.10;;;;;;7637466;22;81271;-58
2023/07/08 08:17:14;;;;;;;8.98;2.40;;;26.00;47.60;;;;;;7627637;22;81546;-55
2023/07/08 10:49:40;;;;;;;11.32;3.70;;;26.70;38.80;;;;;;7598527;22;81558;-61
2023/07/08 10:52:41;;;;;;;7.60;3.60;;;26.80;38.40;;;;;;7607646;22;81321;-54
2023/07/08 10:55:42;;;;;;;5.80;3.50;;;26.80;38.30;;;;;;7609979;22;81190;-56
2023/07/08 10:58:42;;;;;;;7.25;3.70;;;26.90;39.00;;;;;;7608905;22;80915;-56
2023/07/08 11:01:43;;;;;;;4.78;3.60;;;26.90;38.60;;;;;;7606403;22;81055;-54
2023/07/08 11:04:43;;;;;;;6.75;4.20;;;26.90;38.20;;;;;;7609238;22;80479;-54
2023/07/08 11:07:44;;;;;;;6.40;4.22;;;27.00;37.90;;;;;;7608339;22;81127;-55
2023/07/08 11:10:44;;;;;;;6.03;3.80;;;26.90;38.40;;;;;;7607700;22;81295;-59
2023/07/08 11:13:45;;;;;;;7.45;3.97;;;27.00;38.20;;;;;;7637003;22;81399;-58
2023/07/08 11:16:47;;;;;;;9.20;3.85;;;27.00;38.90;;;;;;7632623;22;81127;-60
2023/07/08 11:19:47;;;;;;;7.60;4.00;;;27.00;39.90;;;;;;7639692;22;80372;-57
2023/07/08 11:22:48;;;;;;;6.97;4.10;;;26.90;39.90;;;;;;7641823;22;80393;-58
2023/07/08 11:25:48;;;;;;;6.43;4.00;;;26.90;40.40;;;;;;7642769;22;81701;-58
2023/07/08 11:28:49;;;;;;;6.88;3.97;;;26.90;40.50;;;;;;7642707;22;81121;-59
2023/07/08 11:31:49;;;;;;;4.68;3.53;;;26.80;40.70;;;;;;7641850;22;80683;-60
2023/07/08 11:34:50;;;;;;;7.45;3.80;;;26.90;41.00;;;;;;7640595;22;80241;-61
2023/07/08 11:37:50;;;;;;;8.25;4.10;;;26.80;40.10;;;;;;7641244;22;80511;-61
2023/07/08 11:40:51;;;;;;;5.38;3.88;;;26.80;40.60;;;;;;7642058;22;80777;-60
2023/07/08 11:43:52;;;;;;;13.90;5.07;;;26.80;40.50;;;;;;7641173;22;81424;-59
2023/07/08 11:46:52;;;;;;;14.70;5.63;;;26.80;41.10;;;;;;7642095;22;80575;-60
2023/07/08 11:49:53;;;;;;;24.92;8.73;;;26.80;41.40;;;;;;7642309;22;80651;-58
2023/07/08 11:52:53;;;;;;;29.10;10.35;;;26.80;42.00;;;;;;7612884;22;83364;-58
2023/07/08 11:55:54;;;;;;;54.80;13.75;;;26.80;42.20;;;;;;7626032;22;83508;-59
2023/07/08 11:58:54;;;;;;;44.25;13.48;;;26.90;43.00;;;;;;7638065;22;83325;-60
2023/07/08 12:01:55;;;;;;;43.25;14.30;;;26.80;43.10;;;;;;7609709;22;84212;-58
2023/07/08 12:04:56;;;;;;;30.90;9.77;;;26.90;43.90;;;;;;7633849;22;84180;-59
2023/07/08 12:07:58;;;;;;;28.15;10.48;;;27.00;43.90;;;;;;7640497;22;83252;-66
2023/07/08 12:10:58;;;;;;;33.55;11.30;;;27.00;43.90;;;;;;7609100;22;84187;-63
2023/07/08 12:13:59;;;;;;;26.73;9.57;;;27.10;44.20;;;;;;7635724;22;82938;-61
2023/07/08 12:17:00;;;;;;;30.83;11.15;;;27.10;44.00;;;;;;7641770;22;81632;-59
2023/07/08 12:20:00;;;;;;;47.95;15.05;;;27.10;43.90;;;;;;7637859;22;82959;-62
2023/07/08 12:23:01;;;;;;;46.50;15.45;;;27.10;44.90;;;;;;7636806;22;83327;-60
2023/07/08 12:26:02;;;;;;;49.30;14.57;;;27.10;45.10;;;;;;7637515;22;86835;-58
2023/07/08 12:29:03;;;;;;;44.30;13.93;;;27.10;45.10;;;;;;7637966;22;83083;-54
2023/07/08 12:32:03;;;;;;;38.28;11.68;;;27.10;44.80;;;;;;7638381;22;82968;-58
2023/07/08 12:35:05;;;;;;;32.03;10.73;;;27.10;44.60;;;;;;7604587;22;84078;-56
2023/07/08 12:38:06;;;;;;;31.13;9.25;;;27.10;44.50;;;;;;7620598;22;83522;-52
2023/07/08 12:41:06;;;;;;;23.23;7.45;;;27.20;44.40;;;;;;7606282;22;83596;-52
2023/07/08 12:44:07;;;;;;;18.27;6.50;;;27.20;44.40;;;;;;7624796;22;81533;-56
2023/07/08 12:47:08;;;;;;;10.80;4.35;;;27.10;43.60;;;;;;7620804;22;81698;-55
2023/07/08 12:50:08;;;;;;;6.57;4.00;;;27.20;42.10;;;;;;7623503;22;81126;-57
2023/07/08 12:53:09;;;;;;;7.40;3.80;;;27.20;41.80;;;;;;7621823;22;81114;-54
2023/07/08 12:56:10;;;;;;;8.13;3.97;;;27.20;41.70;;;;;;7622412;22;81563;-57
2023/07/08 12:59:10;;;;;;;5.18;3.00;;;27.20;41.60;;;;;;7621476;22;81465;-57
2023/07/08 13:02:11;;;;;;;4.88;2.60;;;27.10;41.10;;;;;;7620138;22;80548;-56
2023/07/08 13:05:11;;;;;;;5.15;2.95;;;27.10;41.30;;;;;;7623147;22;80673;-54
2023/07/08 13:08:12;;;;;;;3.78;2.67;;;27.00;40.90;;;;;;7625935;22;80864;-51
2023/07/08 13:11:12;;;;;;;9.38;3.95;;;27.00;40.90;;;;;;7623747;22;80642;-57
2023/07/08 13:14:13;;;;;;;9.25;3.40;;;27.00;41.30;;;;;;7618555;22;81738;-50
2023/07/08 13:17:13;;;;;;;6.68;2.90;;;27.00;41.50;;;;;;7624549;22;80716;-55
2023/07/08 13:20:14;;;;;;;4.32;2.60;;;27.00;41.70;;;;;;7597604;22;83367;-59
2023/07/08 13:23:15;;;;;;;4.40;2.55;;;27.00;42.10;;;;;;7623550;22;81150;-58
2023/07/08 13:26:16;;;;;;;5.25;3.17;;;27.00;42.30;;;;;;7631058;22;80997;-60
2023/07/08 13:29:16;;;;;;;7.63;3.22;;;27.00;42.30;;;;;;7639788;22;81040;-59
2023/07/08 13:32:17;;;;;;;3.90;2.58;;;27.00;41.50;;;;;;7643126;22;80943;-59
2023/07/08 13:35:17;;;;;;;3.60;2.50;;;27.10;40.90;;;;;;7642618;22;81297;-60
2023/07/08 13:38:18;;;;;;;5.30;2.53;;;27.20;40.80;;;;;;7636471;22;80596;-56
2023/07/08 13:41:18;;;;;;;9.35;2.45;;;27.30;40.50;;;;;;7641501;22;80450;-62
2023/07/08 13:44:19;;;;;;;5.97;2.60;;;27.30;41.40;;;;;;7638952;22;81087;-75
2023/07/08 13:47:19;;;;;;;4.93;2.70;;;26.90;41.70;;;;;;7641555;22;81335;-65
2023/07/08 13:50:20;;;;;;;3.60;2.63;;;26.50;42.00;;;;;;7636964;22;80862;-63
2023/07/08 13:53:20;;;;;;;5.03;2.47;;;26.30;43.10;;;;;;7641584;22;81438;-65
2023/07/08 13:56:21;;;;;;;4.30;2.63;;;26.50;43.10;;;;;;7641639;22;80669;-72
2023/07/08 13:59:21;;;;;;;5.97;2.67;;;26.50;43.80;;;;;;7641657;22;80421;-73
2023/07/08 14:02:23;;;;;;;3.00;2.28;;;26.60;42.80;;;;;;7641631;22;80113;-72
2023/07/08 14:05:24;;;;;;;3.72;2.60;;;26.60;43.00;;;;;;7642030;22;80470;-70
2023/07/08 14:08:24;;;;;;;4.88;2.25;;;26.70;43.20;;;;;;7639929;22;80263;-72
2023/07/08 14:11:25;;;;;;;4.00;2.42;;;26.70;44.10;;;;;;7641513;22;80918;-72
2023/07/08 14:14:25;;;;;;;4.57;2.10;;;26.70;43.70;;;;;;7642545;22;80671;-69
2023/07/08 14:17:26;;;;;;;3.67;2.15;;;26.80;41.50;;;;;;7640371;22;80379;-72
2023/07/08 14:20:30;;;;;;;7.32;2.45;;;26.80;41.90;;;;;;7640814;22;80635;-72
2023/07/08 14:23:30;;;;;;;2.55;2.20;;;26.80;41.10;;;;;;7639652;22;81200;-70
2023/07/08 14:26:31;;;;;;;4.68;2.50;;;26.90;42.80;;;;;;7640731;22;80575;-68
2023/07/08 14:29:31;;;;;;;6.07;2.42;;;26.90;41.80;;;;;;7641892;22;81091;-68
2023/07/08 14:32:32;;;;;;;3.35;2.10;;;26.90;41.60;;;;;;7642647;22;80375;-66
2023/07/08 14:35:32;;;;;;;4.45;2.67;;;26.90;41.60;;;;;;7641939;22;81381;-67
2023/07/08 14:38:33;;;;;;;2.58;2.13;;;26.90;41.40;;;;;;7640240;22;81606;-66
2023/07/08 14:41:33;;;;;;;3.40;2.20;;;26.80;41.20;;;;;;7638570;22;80955;-68
2023/07/08 14:44:34;;;;;;;4.43;2.13;;;26.80;40.90;;;;;;7641555;22;80673;-69
2023/07/08 14:47:34;;;;;;;3.85;2.17;;;26.90;41.80;;;;;;7640732;22;80350;-65
2023/07/08 14:50:35;;;;;;;5.38;2.20;;;26.90;40.90;;;;;;7642901;22;81224;-66
2023/07/08 14:53:36;;;;;;;4.55;2.60;;;26.80;40.50;;;;;;7641820;22;80767;-68
2023/07/08 14:56:36;;;;;;;3.38;1.88;;;26.80;40.80;;;;;;7643003;22;80792;-66
2023/07/08 14:59:37;;;;;;;4.03;1.95;;;26.80;41.00;;;;;;7641062;22;80190;-67
2023/07/08 15:02:37;;;;;;;2.28;1.92;;;26.80;40.10;;;;;;7642046;22;80353;-70
2023/07/08 15:05:38;;;;;;;3.50;2.40;;;26.80;40.30;;;;;;7638936;22;80416;-68
2023/07/08 15:08:38;;;;;;;2.53;2.05;;;26.80;40.60;;;;;;7642881;22;80394;-63
2023/07/08 15:11:39;;;;;;;4.28;2.20;;;26.80;41.00;;;;;;7639572;22;80184;-60
2023/07/08 15:14:40;;;;;;;2.67;2.00;;;26.80;40.70;;;;;;7641809;22;80420;-52
2023/07/08 15:17:40;;;;;;;2.75;1.90;;;26.80;40.80;;;;;;7639584;22;81251;-58
2023/07/08 19:22:21;;;;;;;8.85;4.63;;;26.20;45.30;;;;;;7610479;22;81123;-60
2023/07/08 19:25:22;;;;;;;12.38;5.63;;;26.20;46.10;;;;;;7618209;22;80933;-61
2023/07/08 19:28:22;;;;;;;9.68;5.85;;;26.20;46.10;;;;;;7617990;22;81025;-69
2023/07/08 19:31:23;;;;;;;8.77;5.50;;;26.10;45.90;;;;;;7592339;22;81362;-72
2023/07/08 19:34:23;;;;;;;11.02;6.22;;;26.10;45.70;;;;;;7620608;22;80714;-68
2023/07/08 19:37:24;;;;;;;15.57;7.97;;;26.10;45.40;;;;;;7615676;22;81400;-69
2023/07/08 19:40:24;;;;;;;15.13;9.30;;;26.10;45.20;;;;;;7619318;22;81262;-68
2023/07/08 19:43:25;;;;;;;19.63;10.68;;;26.10;45.60;;;;;;7621638;22;80951;-62
2023/07/08 19:46:25;;;;;;;14.20;8.82;;;25.90;45.10;;;;;;7617866;22;83510;-63
2023/07/08 19:49:26;;;;;;;15.32;8.07;;;25.70;45.20;;;;;;7620129;22;82102;-62
2023/07/08 19:52:27;;;;;;;12.63;8.05;;;25.60;45.40;;;;;;7619112;22;80870;-62
2023/07/08 19:55:27;;;;;;;16.73;7.38;;;25.50;45.50;;;;;;7628464;22;80463;-63
2023/07/08 19:58:28;;;;;;;9.52;6.32;;;25.50;45.80;;;;;;7624100;22;81519;-63
2023/07/08 20:01:28;;;;;;;10.02;6.18;;;25.40;45.90;;;;;;7625883;22;80849;-61
2023/07/08 20:04:29;;;;;;;13.88;6.63;;;25.40;45.90;;;;;;7628119;22;81025;-62
2023/07/08 20:07:29;;;;;;;9.50;6.38;;;25.40;46.00;;;;;;7593577;22;80736;-65
2023/07/08 20:10:30;;;;;;;9.00;6.05;;;25.40;45.90;;;;;;7627915;22;80775;-61
2023/07/08 20:13:30;;;;;;;9.77;6.38;;;25.40;46.00;;;;;;7626160;22;80463;-64
2023/07/08 20:16:31;;;;;;;11.02;5.65;;;25.40;46.10;;;;;;7627527;22;80744;-62
2023/07/08 20:19:31;;;;;;;10.00;5.03;;;25.40;46.00;;;;;;7620979;22;80983;-64
2023/07/08 20:22:32;;;;;;;10.38;4.90;;;25.40;46.00;;;;;;7625409;22;80615;-64
2023/07/08 20:25:33;;;;;;;6.95;3.90;;;25.30;45.90;;;;;;7626771;22;80894;-63
2023/07/08 20:28:34;;;;;;;9.43;3.45;;;25.30;45.90;;;;;;7624909;22;80742;-62
2023/07/08 20:31:35;;;;;;;5.32;3.97;;;25.30;45.90;;;;;;7625746;22;80999;-60
2023/07/08 20:34:36;;;;;;;8.25;3.95;;;25.30;46.10;;;;;;7606771;22;80500;-61
2023/07/08 20:37:36;;;;;;;8.15;4.15;;;25.20;46.00;;;;;;7622440;22;81127;-62
2023/07/08 20:40:38;;;;;;;8.15;4.00;;;25.20;46.00;;;;;;7601245;22;81303;-62
2023/07/08 20:43:38;;;;;;;8.80;4.35;;;25.20;46.00;;;;;;7631534;22;81054;-63
2023/07/08 20:46:39;;;;;;;7.88;4.20;;;25.10;45.90;;;;;;7643182;22;80110;-62
2023/07/08 20:49:39;;;;;;;5.38;3.58;;;25.10;45.70;;;;;;7640831;22;81259;-62
2023/07/08 20:52:40;;;;;;;5.60;3.72;;;25.10;45.70;;;;;;7643884;22;80837;-62
2023/07/08 20:55:40;;;;;;;5.00;3.60;;;25.10;45.70;;;;;;7644481;22;80824;-62
2023/07/08 20:58:41;;;;;;;8.45;3.53;;;25.20;45.60;;;;;;7644529;22;80299;-61
2023/07/08 21:01:42;;;;;;;13.57;4.45;;;25.20;45.40;;;;;;7643714;22;80843;-59
2023/07/08 21:04:42;;;;;;;5.97;4.25;;;25.10;45.20;;;;;;7611727;22;80457;-61
2023/07/08 21:07:43;;;;;;;7.85;4.40;;;25.10;45.20;;;;;;7627073;22;81201;-61
2023/07/08 21:10:43;;;;;;;13.90;5.80;;;25.00;45.20;;;;;;7621869;22;81160;-62
2023/07/08 21:13:44;;;;;;;7.13;4.63;;;25.00;45.30;;;;;;7622519;22;80985;-61
2023/07/08 21:16:45;;;;;;;9.23;4.68;;;25.10;45.40;;;;;;7622237;22;80409;-62
2023/07/08 21:19:45;;;;;;;7.97;4.35;;;25.30;45.30;;;;;;7627128;22;81612;-62
2023/07/08 21:22:46;;;;;;;9.50;4.55;;;25.20;45.40;;;;;;7632152;22;80053;-61
2023/07/08 21:25:46;;;;;;;9.20;5.18;;;25.20;45.50;;;;;;7635722;22;80962;-62
2023/07/08 21:28:47;;;;;;;7.55;4.72;;;25.20;45.50;;;;;;7637356;22;81350;-62
2023/07/08 21:31:48;;;;;;;41.40;13.25;;;25.30;45.50;;;;;;7638654;22;80809;-61
2023/07/08 21:34:48;;;;;;;18.45;8.07;;;25.30;45.40;;;;;;7640186;22;83533;-62
2023/07/08 21:37:49;;;;;;;15.68;6.90;;;25.40;45.30;;;;;;7643197;22;82873;-71
2023/07/08 21:40:49;;;;;;;12.52;5.72;;;25.50;45.50;;;;;;7643792;22;80162;-71
2023/07/08 21:43:50;;;;;;;9.57;5.53;;;25.50;45.40;;;;;;7644169;22;80243;-72
2023/07/08 21:46:50;;;;;;;12.18;5.05;;;25.50;45.40;;;;;;7640722;22;80495;-72
2023/07/08 21:49:51;;;;;;;9.10;5.00;;;25.60;45.20;;;;;;7641266;22;80795;-71
2023/07/08 21:52:51;;;;;;;8.65;5.35;;;25.60;45.10;;;;;;7645045;22;81453;-75
2023/07/08 21:55:52;;;;;;;9.38;5.25;;;25.70;45.30;;;;;;7645407;22;80535;-71
2023/07/08 21:58:52;;;;;;;11.20;4.57;;;25.70;45.00;;;;;;7645454;22;80817;-73
2023/07/08 22:01:53;;;;;;;10.20;5.13;;;25.70;45.20;;;;;;7643989;22;80475;-72
2023/07/08 22:04:54;;;;;;;7.93;4.75;;;25.70;44.90;;;;;;7640580;22;80617;-62
2023/07/08 22:07:54;;;;;;;9.07;4.47;;;25.70;45.20;;;;;;7641057;22;80433;-62
2023/07/08 22:10:55;;;;;;;7.72;4.90;;;25.70;45.20;;;;;;7642773;22;80607;-63